createdAt,value
2018-07-09T16:31:44.973Z,71.28
2018-07-09T16:34:13.409Z,70.84
2018-07-09T16:36:42.013Z,70.02
2018-07-09T16:39:10.485Z,69.15
2018-07-09T16:41:38.901Z,69.61
2018-07-09T16:44:07.315Z,68.19
2018-07-09T16:46:35.729Z,67.50
2018-07-09T16:49:04.368Z,67.23
2018-07-09T16:51:32.804Z,65.40
2018-07-09T16:54:01.152Z,66.99
2018-07-09T16:56:29.572Z,65.96
2018-07-09T16:58:57.986Z,66.16
2018-07-09T17:01:26.375Z,65.52
2018-07-09T17:03:54.711Z,65.16
2018-07-09T17:06:23.175Z,65.87
2018-07-09T17:08:51.573Z,65.36
2018-07-09T17:11:19.945Z,64.26
2018-07-09T17:13:48.579Z,63.82
2018-07-09T17:16:16.977Z,63.35
2018-07-09T17:18:45.622Z,62.16
2018-07-09T17:21:14.055Z,62.00
2018-07-09T17:23:42.410Z,63.39
2018-07-09T17:26:10.998Z,63.73
2018-07-09T17:28:39.665Z,63.61
2018-07-09T17:31:08.998Z,62.79
2018-07-09T17:33:38.093Z,62.47
2018-07-09T17:36:06.472Z,62.64
2018-07-09T17:38:34.864Z,61.90
2018-07-09T17:41:03.321Z,62.00
2018-07-09T17:43:31.969Z,59.65
2018-07-09T17:46:00.486Z,58.99
2018-07-09T17:48:29.387Z,59.95
2018-07-09T17:50:57.869Z,59.21
2018-07-09T17:53:26.340Z,58.99
2018-07-09T17:55:54.848Z,59.12
2018-07-09T17:58:23.587Z,58.94
2018-07-09T18:00:52.116Z,58.60
2018-07-09T18:03:20.921Z,57.84
2018-07-09T18:05:49.572Z,57.85
2018-07-09T18:08:18.260Z,59.15
2018-07-09T18:10:46.955Z,58.42
2018-07-09T18:13:15.398Z,59.08
2018-07-09T18:15:44.045Z,59.49
2018-07-09T18:18:12.682Z,58.84
2018-07-09T18:20:41.135Z,59.20
2018-07-09T18:23:09.534Z,58.56
2018-07-09T18:25:38.009Z,59.21
2018-07-09T18:28:06.509Z,59.98
2018-07-09T18:30:35.018Z,59.52
2018-07-09T18:33:03.530Z,58.17
2018-07-09T18:35:32.324Z,59.65
2018-07-09T18:38:00.575Z,59.74
2018-07-09T18:40:29.429Z,59.91
2018-07-09T18:42:58.081Z,59.52
2018-07-09T18:45:26.640Z,60.08
2018-07-09T18:47:56.866Z,60.55
2018-07-09T18:50:25.543Z,59.56
2018-07-09T18:52:53.956Z,59.66
2018-07-09T18:55:22.577Z,59.67
2018-07-09T18:57:51.151Z,60.07
2018-07-09T19:00:20.345Z,60.19
2018-07-09T19:02:48.815Z,59.69
2018-07-09T19:05:17.434Z,58.47
2018-07-09T19:07:45.903Z,59.40
2018-07-09T19:10:14.494Z,59.08
2018-07-09T19:12:42.912Z,58.32
2018-07-09T19:15:11.928Z,58.77
2018-07-09T19:17:53.429Z,58.83
2018-07-09T19:20:33.661Z,57.52
2018-07-09T19:23:01.136Z,57.42
2018-07-09T19:25:28.509Z,57.62
2018-07-09T19:27:55.950Z,57.97
2018-07-09T19:30:23.407Z,57.47
2018-07-09T19:32:50.971Z,57.24
2018-07-09T19:35:18.453Z,57.46
2018-07-09T19:37:46.464Z,57.38
2018-07-09T19:40:13.836Z,57.64
2018-07-09T19:42:41.326Z,56.99
2018-07-09T19:45:08.707Z,57.93
2018-07-09T19:47:36.133Z,57.24
2018-07-09T19:50:03.575Z,58.13
2018-07-09T19:52:31.013Z,56.69
2018-07-09T19:54:58.431Z,57.03
2018-07-09T19:57:26.244Z,57.17
2018-07-09T19:59:53.744Z,56.19
2018-07-09T20:02:21.186Z,56.11
2018-07-09T20:04:48.817Z,56.33
2018-07-09T20:07:16.187Z,55.66
2018-07-09T20:09:48.991Z,54.90
2018-07-09T20:12:21.682Z,55.03
2018-07-09T20:14:54.589Z,54.59
2018-07-09T20:17:28.201Z,54.42
2018-07-09T20:19:55.755Z,54.60
2018-07-09T20:22:23.110Z,55.07
2018-07-09T20:24:50.471Z,54.52
2018-07-09T20:27:17.858Z,55.07
2018-07-09T20:29:45.288Z,55.21
2018-07-09T20:32:12.669Z,55.26
2018-07-09T20:34:40.974Z,55.03
2018-07-09T20:37:08.460Z,54.79
2018-07-09T20:39:35.788Z,55.09
2018-07-09T20:42:03.121Z,54.63
2018-07-09T20:44:30.452Z,53.99
2018-07-09T20:46:57.911Z,54.60
2018-07-09T20:49:25.228Z,55.10
2018-07-09T20:51:52.551Z,55.47
2018-07-09T20:54:19.841Z,54.70
2018-07-09T20:56:49.091Z,54.77
2018-07-09T20:59:16.532Z,55.62
2018-07-09T21:01:43.884Z,55.02
2018-07-09T21:04:16.550Z,55.15
2018-07-09T21:06:43.846Z,54.96
2018-07-09T21:09:12.961Z,55.04
2018-07-09T21:11:40.324Z,55.37
2018-07-09T21:14:07.629Z,56.68
2018-07-09T21:16:35.011Z,56.36
2018-07-09T21:19:03.820Z,56.89
2018-07-09T21:21:31.165Z,56.78
2018-07-09T21:23:59.452Z,55.92
2018-07-09T21:26:26.896Z,56.66
2018-07-09T21:28:56.930Z,56.38
2018-07-09T21:31:24.541Z,57.14
2018-07-09T21:33:57.339Z,56.86
2018-07-09T21:36:24.798Z,57.35
2018-07-09T21:38:52.103Z,56.86
2018-07-09T21:41:19.434Z,57.72
2018-07-09T21:43:46.820Z,57.30
2018-07-09T21:46:14.122Z,57.49
2018-07-09T21:48:41.663Z,58.82
2018-07-09T21:51:09.209Z,58.37
2018-07-09T21:53:36.619Z,58.56
2018-07-09T21:56:04.270Z,59.78
2018-07-09T21:58:31.623Z,60.56
2018-07-09T22:00:58.936Z,61.06
2018-07-09T22:03:26.368Z,60.78
2018-07-09T22:05:53.700Z,60.83
2018-07-09T22:08:21.042Z,60.54
2018-07-09T22:10:48.336Z,61.07
2018-07-09T22:13:15.693Z,59.90
2018-07-09T22:15:43.129Z,60.12
2018-07-09T22:18:10.573Z,60.67
2018-07-09T22:20:38.047Z,60.88
2018-07-09T22:23:05.385Z,60.33
2018-07-09T22:25:32.710Z,61.91
2018-07-09T22:28:00.153Z,61.13
2018-07-09T22:30:30.428Z,61.38
2018-07-09T22:32:58.957Z,60.57
2018-07-09T22:35:27.619Z,60.96
2018-07-09T22:37:56.029Z,60.48
2018-07-09T22:40:24.482Z,60.86
2018-07-09T22:42:52.825Z,61.56
2018-07-09T22:45:21.320Z,61.61
2018-07-09T22:47:49.909Z,62.37
2018-07-09T22:50:18.306Z,61.81
2018-07-09T22:52:46.846Z,61.71
2018-07-09T22:55:26.558Z,62.17
2018-07-09T22:57:55.262Z,61.87
2018-07-09T23:00:23.671Z,62.10
2018-07-09T23:03:05.112Z,63.07
2018-07-09T23:05:33.500Z,62.63
2018-07-09T23:08:01.855Z,63.00
2018-07-09T23:11:13.361Z,63.03
2018-07-09T23:13:54.430Z,62.41
2018-07-09T23:16:45.365Z,62.88
2018-07-09T23:19:27.738Z,62.89
2018-07-09T23:22:07.268Z,63.28
2018-07-09T23:24:34.602Z,62.64
2018-07-09T23:27:04.412Z,63.43
2018-07-09T23:29:31.750Z,62.79
2018-07-09T23:31:59.057Z,63.99
2018-07-09T23:34:26.805Z,63.23
2018-07-09T23:36:54.137Z,63.78
2018-07-09T23:39:21.472Z,62.77
2018-07-09T23:41:48.761Z,62.99
2018-07-09T23:44:16.048Z,62.71
2018-07-09T23:46:43.372Z,63.72
2018-07-09T23:49:10.673Z,62.76
2018-07-09T23:51:38.268Z,62.69
2018-07-09T23:54:05.585Z,63.44
2018-07-09T23:56:54.612Z,63.57
2018-07-09T23:59:34.247Z,62.82
